VLLN

Details ICAO VLLN (LXG)
Name Luang Namtha
Region Laos
Timezone Asia/Vientiane (UTC+7.0)
Plans Departing 0
Arriving 1
Stats Elevation 1,968 ft / 600 m (AMSL)
Location 21.034444° 101.470000°
Runways 1
Magnetic Variation 1.001° W
Sunrise 2017-12-17 23:46:18 UTC / 2017-12-18 06:46:18 Local
Sunset 2017-12-18 10:37:36 UTC / 2017-12-18 17:37:36 Local
Advertisement - Login to hide

Runways

ID Width Length Bearing (true) Bearing (mag) Surface Threshold Offset Overrun Length
18 164 ft / 50 m 4,460 ft / 1,360 m 180.00° 181.00° Concrete 0 ft / 0 m 0 ft / 0 m
36 164 ft / 50 m 4,460 ft / 1,360 m 0.00° 1.00° Concrete 0 ft / 0 m 0 ft / 0 m

Map

Weather


0- 5 10 15 20 25 30 35+ Temperature / ° C

Clouds and Precipitation
Forecast for 2017-12-18 00:00 UTC. Updated 2 hours ago

Ground ~20,000 ft ~40,000 ft Winds

METAR

VLLN 180100Z 27002KT 5000 BR FEW010 SCT040 OVC100 12/12 Q1023 NOSIG

TAF

TAF VLLN 172300Z 1800/1824 34004KT 7000 SCT020 BKN100 TEMPO 1800/1803 0800 FG VV///
Warning: Do not use this data for real-world aviation or navigation. No guarantee of current accuracy is given.